createdAt,value
2018-05-04T00:00:54.505Z,81.52
2018-05-04T00:01:54.565Z,81.33
2018-05-04T00:02:54.624Z,81.52
2018-05-04T00:03:54.693Z,81.62
2018-05-04T00:04:54.762Z,81.62
2018-05-04T00:05:54.812Z,81.52
2018-05-04T00:06:54.877Z,81.43
2018-05-04T00:07:54.941Z,81.24
2018-05-04T00:08:55.009Z,81.24
2018-05-04T00:09:55.073Z,80.86
2018-05-04T00:10:55.128Z,81.24
2018-05-04T00:11:55.190Z,81.05
2018-05-04T00:12:55.249Z,81.43
2018-05-04T00:13:55.313Z,81.43
2018-05-04T00:14:55.621Z,81.33
2018-05-04T00:15:55.436Z,81.62
2018-05-04T00:16:55.500Z,81.43
2018-05-04T00:17:55.564Z,81.90
2018-05-04T00:18:55.625Z,81.86
2018-05-04T00:19:55.696Z,81.90
2018-05-04T00:20:55.757Z,82.09
2018-05-04T00:21:55.813Z,82.00
2018-05-04T00:22:55.877Z,81.86
2018-05-04T00:23:55.936Z,81.71
2018-05-04T00:24:56.005Z,82.53
2018-05-04T00:25:56.069Z,82.91
2018-05-04T00:26:56.125Z,82.91
2018-05-04T00:27:56.191Z,83.29
2018-05-04T00:28:56.249Z,82.95
2018-05-04T00:29:56.313Z,82.53
2018-05-04T00:30:56.494Z,82.71
2018-05-04T00:31:56.437Z,82.53
2018-05-04T00:32:56.504Z,82.76
2018-05-04T00:33:56.561Z,82.91
2018-05-04T00:34:56.625Z,82.53
2018-05-04T00:35:56.694Z,82.91
2018-05-04T00:36:56.757Z,82.76
2018-05-04T00:37:56.813Z,82.71
2018-05-04T00:38:56.874Z,82.62
2018-05-04T00:39:56.941Z,82.24
2018-05-04T00:40:57.006Z,82.43
2018-05-04T00:41:57.069Z,82.48
2018-05-04T00:42:57.127Z,81.86
2018-05-04T00:43:57.186Z,82.43
2018-05-04T00:44:57.250Z,82.67
2018-05-04T00:45:57.622Z,83.23
2018-05-04T00:46:57.374Z,83.29
2018-05-04T00:47:57.438Z,82.91
2018-05-04T00:48:57.499Z,82.62
2018-05-04T00:49:57.561Z,82.62
2018-05-04T00:50:57.629Z,82.71
2018-05-04T00:51:57.690Z,83.95
2018-05-04T00:52:57.750Z,82.91
2018-05-04T00:53:57.810Z,84.05
2018-05-04T00:54:57.874Z,83.86
2018-05-04T00:55:57.942Z,83.67
2018-05-04T00:56:58.003Z,83.67
2018-05-04T00:57:58.066Z,84.05
2018-05-04T00:58:58.123Z,83.95
2018-05-04T00:59:58.188Z,84.72
2018-05-04T01:00:58.247Z,83.86
2018-05-04T01:01:58.322Z,83.67
2018-05-04T01:02:58.395Z,84.24
2018-05-04T01:03:58.443Z,83.67
2018-05-04T01:04:58.511Z,84.14
2018-05-04T01:05:58.559Z,84.33
2018-05-04T01:06:58.658Z,84.24
2018-05-04T01:07:58.697Z,85.19
2018-05-04T01:08:58.759Z,85.10
2018-05-04T01:09:58.815Z,84.72
2018-05-04T01:10:58.870Z,84.72
2018-05-04T01:11:58.946Z,84.43
2018-05-04T01:12:59.030Z,84.33
2018-05-04T01:13:59.063Z,84.52
2018-05-04T01:14:59.130Z,85.28
2018-05-04T01:15:59.183Z,85.10
2018-05-04T01:16:59.251Z,85.57
2018-05-04T01:17:59.499Z,85.47
2018-05-04T01:18:59.371Z,85.28
2018-05-04T01:19:59.431Z,85.76
2018-05-04T01:20:59.524Z,85.57
2018-05-04T01:21:59.583Z,85.47
2018-05-04T01:22:59.651Z,85.47
2018-05-04T01:23:59.739Z,86.33
2018-05-04T01:24:59.767Z,85.95
2018-05-04T01:25:59.819Z,86.14
2018-05-04T01:26:59.879Z,86.14
2018-05-04T01:27:59.952Z,86.43
2018-05-04T01:29:00.025Z,86.52
2018-05-04T01:30:00.076Z,86.43
2018-05-04T01:31:00.120Z,86.33
2018-05-04T01:32:00.176Z,86.05
2018-05-04T01:33:00.264Z,86.52
2018-05-04T01:34:00.311Z,86.43
2018-05-04T01:35:00.368Z,86.52
2018-05-04T01:36:00.440Z,86.90
2018-05-04T01:37:00.500Z,86.80
2018-05-04T01:38:00.589Z,87.09
2018-05-04T01:39:00.645Z,87.14
2018-05-04T01:40:00.680Z,87.14
2018-05-04T01:41:00.752Z,86.38
2018-05-04T01:42:00.824Z,87.24
2018-05-04T01:43:00.884Z,86.67
2018-05-04T01:44:00.944Z,87.62
2018-05-04T01:45:00.996Z,87.81
2018-05-04T01:46:01.060Z,87.71
2018-05-04T01:47:01.121Z,87.43
2018-05-04T01:48:01.341Z,87.52
2018-05-04T01:49:01.249Z,87.52
2018-05-04T01:50:01.317Z,87.14
2018-05-04T01:51:01.429Z,87.43
2018-05-04T01:52:01.437Z,87.90
2018-05-04T01:53:01.553Z,88.28
2018-05-04T01:54:01.585Z,87.90
2018-05-04T01:55:01.633Z,89.04
2018-05-04T01:56:01.677Z,89.42
2018-05-04T01:57:01.741Z,90.61
2018-05-04T01:58:01.847Z,90.90
2018-05-04T01:59:01.885Z,91.38
2018-05-04T02:00:01.946Z,90.90
2018-05-04T02:01:02.001Z,91.47
2018-05-04T02:02:02.061Z,91.28
2018-05-04T02:03:02.173Z,91.47
2018-05-04T02:04:02.194Z,91.56
2018-05-04T02:05:02.258Z,90.80
2018-05-04T02:06:02.319Z,91.09
2018-05-04T02:07:02.373Z,91.19
2018-05-04T02:08:02.470Z,90.14
2018-05-04T02:09:02.518Z,90.61
2018-05-04T02:10:02.555Z,91.28
2018-05-04T02:11:02.602Z,92.13
2018-05-04T02:12:02.669Z,92.61
2018-05-04T02:13:02.743Z,91.85
2018-05-04T02:14:02.810Z,91.09
2018-05-04T02:15:02.858Z,91.75
2018-05-04T02:16:02.922Z,91.47
2018-05-04T02:17:02.990Z,90.61
2018-05-04T02:18:03.050Z,91.80
2018-05-04T02:19:03.118Z,93.27
2018-05-04T02:20:03.170Z,93.27
2018-05-04T02:21:03.230Z,93.56
2018-05-04T02:22:03.296Z,93.60
2018-05-04T02:23:03.514Z,93.32
2018-05-04T02:24:03.414Z,92.47
2018-05-04T02:25:03.483Z,93.32
2018-05-04T02:26:03.538Z,93.51
2018-05-04T02:27:03.606Z,93.99
2018-05-04T02:28:03.674Z,93.80
2018-05-04T02:29:03.730Z,93.89
2018-05-04T02:30:03.795Z,93.04
2018-05-04T02:31:03.852Z,92.66
2018-05-04T02:32:03.911Z,92.47
2018-05-04T02:33:03.983Z,92.09
2018-05-04T02:34:04.047Z,91.71
2018-05-04T02:35:04.100Z,92.28
2018-05-04T02:36:04.169Z,93.70
2018-05-04T02:37:04.225Z,94.74
2018-05-04T02:38:04.303Z,95.22
2018-05-04T02:39:04.343Z,95.98
2018-05-04T02:40:04.414Z,95.79
2018-05-04T02:41:04.467Z,95.60
2018-05-04T02:42:04.531Z,94.93
2018-05-04T02:43:04.597Z,94.27
2018-05-04T02:44:04.659Z,94.27
2018-05-04T02:45:04.715Z,94.84
2018-05-04T02:46:04.779Z,95.98
2018-05-04T02:47:04.843Z,96.26
2018-05-04T02:48:04.907Z,96.17
2018-05-04T02:49:04.973Z,96.17
2018-05-04T02:50:05.027Z,96.17
2018-05-04T02:51:05.087Z,95.41
2018-05-04T02:52:05.148Z,94.46
2018-05-04T02:53:05.321Z,94.65
2018-05-04T02:54:05.271Z,94.08
2018-05-04T02:55:05.347Z,94.93
2018-05-04T02:56:05.396Z,96.08
2018-05-04T02:57:05.461Z,96.64
2018-05-04T02:58:05.529Z,96.17
2018-05-04T02:59:05.589Z,96.26
2018-05-04T03:00:05.643Z,96.93
2018-05-04T03:01:05.703Z,96.93
2018-05-04T03:02:05.775Z,96.93
2018-05-04T03:03:05.836Z,96.64
2018-05-04T03:04:05.896Z,96.26
2018-05-04T03:05:05.952Z,95.79
2018-05-04T03:06:06.020Z,96.45
2018-05-04T03:07:06.089Z,97.41
2018-05-04T03:08:06.247Z,97.74
2018-05-04T03:09:06.212Z,97.41
2018-05-04T03:10:06.265Z,97.83
2018-05-04T03:11:06.380Z,97.60
2018-05-04T03:12:06.389Z,97.92
2018-05-04T03:13:06.452Z,98.26
2018-05-04T03:14:06.517Z,98.07
2018-05-04T03:15:06.568Z,97.74
2018-05-04T03:16:06.632Z,97.45
2018-05-04T03:17:06.693Z,97.17
2018-05-04T03:18:06.765Z,96.97
2018-05-04T03:19:06.825Z,96.12
2018-05-04T03:20:06.881Z,96.78
2018-05-04T03:21:06.941Z,97.36
2018-05-04T03:22:07.004Z,96.69
2018-05-04T03:23:07.069Z,96.69
2018-05-04T03:24:07.137Z,97.45
2018-05-04T03:25:07.189Z,96.78
2018-05-04T03:26:07.249Z,96.31
2018-05-04T03:27:07.309Z,96.22
2018-05-04T03:28:07.382Z,96.59
2018-05-04T03:29:07.441Z,96.97
2018-05-04T03:30:07.497Z,96.88
2018-05-04T03:31:07.558Z,96.41
2018-05-04T03:32:07.618Z,95.74
2018-05-04T03:33:07.689Z,95.74
2018-05-04T03:34:07.749Z,97.45
2018-05-04T03:35:07.806Z,98.49
2018-05-04T03:36:07.865Z,98.87
2018-05-04T03:37:07.936Z,98.40
2018-05-04T03:38:07.997Z,97.74
2018-05-04T03:39:08.057Z,97.55
2018-05-04T03:40:08.113Z,97.55
2018-05-04T03:41:08.173Z,98.11
2018-05-04T03:42:08.237Z,98.68
2018-05-04T03:43:08.309Z,98.68
2018-05-04T03:44:08.358Z,98.87
2018-05-04T03:45:08.422Z,99.35
2018-05-04T03:46:08.486Z,99.35
2018-05-04T03:47:08.542Z,99.35
2018-05-04T03:48:08.617Z,99.06
2018-05-04T03:49:08.673Z,98.78
2018-05-04T03:50:08.730Z,98.21
2018-05-04T03:51:08.790Z,97.45
2018-05-04T03:52:08.878Z,98.02
2018-05-04T03:53:08.918Z,97.36
2018-05-04T03:54:08.982Z,97.74
2018-05-04T03:55:09.034Z,97.36
2018-05-04T03:56:09.098Z,97.74
2018-05-04T03:57:09.162Z,97.64
2018-05-04T03:58:09.234Z,98.11
2018-05-04T03:59:09.282Z,98.68
2018-05-04T04:00:09.342Z,98.49
2018-05-04T04:01:09.406Z,98.30
2018-05-04T04:02:09.466Z,98.78
2018-05-04T04:03:09.534Z,98.97
2018-05-04T04:04:09.595Z,97.74
2018-05-04T04:05:09.653Z,97.92
2018-05-04T04:06:09.714Z,98.11
2018-05-04T04:07:09.774Z,98.68
2018-05-04T04:08:09.842Z,99.54
2018-05-04T04:09:09.903Z,98.49
2018-05-04T04:10:09.959Z,97.92
2018-05-04T04:11:10.019Z,99.16
2018-05-04T04:12:10.083Z,99.35
2018-05-04T04:13:10.251Z,99.16
2018-05-04T04:14:10.206Z,99.73
2018-05-04T04:15:10.270Z,98.87
2018-05-04T04:16:10.328Z,98.97
2018-05-04T04:17:10.391Z,99.26
2018-05-04T04:18:10.460Z,99.54
2018-05-04T04:19:10.519Z,99.63
2018-05-04T04:20:10.575Z,99.63
2018-05-04T04:21:10.635Z,99.35
2018-05-04T04:22:10.695Z,98.87
2018-05-04T04:23:10.820Z,98.87
2018-05-04T04:24:10.827Z,97.92
2018-05-04T04:25:10.877Z,99.06
2018-05-04T04:26:10.944Z,99.26
2018-05-04T04:27:11.004Z,99.63
2018-05-04T04:28:11.079Z,99.35
2018-05-04T04:29:11.138Z,99.35
2018-05-04T04:30:11.188Z,99.63
2018-05-04T04:31:11.248Z,98.40
2018-05-04T04:32:11.312Z,97.92
2018-05-04T04:33:11.379Z,97.55
2018-05-04T04:34:11.440Z,97.55
2018-05-04T04:35:11.496Z,97.74
2018-05-04T04:36:11.556Z,98.59
2018-05-04T04:37:11.620Z,99.06
2018-05-04T04:38:11.688Z,98.87
2018-05-04T04:39:11.748Z,98.78
2018-05-04T04:40:11.804Z,98.11
2018-05-04T04:41:11.867Z,98.49
2018-05-04T04:42:11.933Z,97.92
2018-05-04T04:43:11.992Z,98.87
2018-05-04T04:44:12.057Z,99.63
2018-05-04T04:45:12.112Z,99.99
2018-05-04T04:46:12.172Z,99.99
2018-05-04T04:47:12.233Z,99.99
2018-05-04T04:48:12.296Z,99.77
2018-05-04T04:49:12.472Z,99.40
2018-05-04T04:50:12.425Z,99.68
2018-05-04T04:51:12.485Z,99.87
2018-05-04T04:52:12.540Z,99.68
2018-05-04T04:53:12.605Z,99.21
2018-05-04T04:54:12.677Z,99.99
2018-05-04T04:55:12.733Z,99.99
2018-05-04T04:56:12.789Z,99.99
2018-05-04T04:57:12.849Z,99.99
2018-05-04T04:58:12.913Z,99.99
2018-05-04T04:59:12.981Z,99.99
2018-05-04T05:00:13.045Z,99.68
2018-05-04T05:01:13.097Z,99.77
2018-05-04T05:02:13.161Z,99.58
2018-05-04T05:03:13.221Z,99.40
2018-05-04T05:04:13.533Z,99.21
2018-05-04T05:05:13.399Z,99.58
2018-05-04T05:06:13.405Z,99.87
2018-05-04T05:07:13.466Z,99.99
2018-05-04T05:08:13.529Z,99.64
2018-05-04T05:09:13.601Z,99.64
2018-05-04T05:10:13.658Z,99.73
2018-05-04T05:11:13.717Z,99.99
2018-05-04T05:12:14.039Z,99.16
2018-05-04T05:13:13.834Z,99.26
2018-05-04T05:14:14.269Z,99.35
2018-05-04T05:15:13.965Z,98.69
2018-05-04T05:16:14.021Z,98.50
2018-05-04T05:17:14.087Z,97.92
2018-05-04T05:18:14.146Z,98.12
2018-05-04T05:19:14.229Z,97.92
2018-05-04T05:20:14.270Z,97.88
2018-05-04T05:21:14.334Z,97.07
2018-05-04T05:22:14.394Z,97.12
2018-05-04T05:23:14.458Z,96.65
2018-05-04T05:24:14.526Z,96.84
2018-05-04T05:25:14.586Z,96.74
2018-05-04T05:26:14.645Z,96.84
2018-05-04T05:27:14.702Z,96.55
2018-05-04T05:28:14.769Z,95.79
2018-05-04T05:29:14.834Z,95.03
2018-05-04T05:30:14.902Z,94.84
2018-05-04T05:31:14.950Z,93.79
2018-05-04T05:32:15.019Z,93.51
2018-05-04T05:33:15.075Z,93.51
2018-05-04T05:34:15.259Z,93.23
2018-05-04T05:35:16.126Z,93.70
2018-05-04T05:36:15.263Z,92.94
2018-05-04T05:37:15.325Z,92.51
2018-05-04T05:38:15.386Z,91.66
2018-05-04T05:39:15.455Z,90.99
2018-05-04T05:40:15.518Z,91.37
2018-05-04T05:41:15.574Z,90.89
2018-05-04T05:42:15.634Z,91.08
2018-05-04T05:43:15.694Z,89.94
2018-05-04T05:44:15.767Z,90.04
2018-05-04T05:45:15.827Z,89.94
2018-05-04T05:46:15.883Z,89.00
2018-05-04T05:47:16.005Z,88.09
2018-05-04T05:48:16.019Z,87.90
2018-05-04T05:49:16.091Z,87.23
2018-05-04T05:50:16.136Z,86.85
2018-05-04T05:51:16.195Z,86.57
2018-05-04T05:52:16.259Z,86.28
2018-05-04T05:53:16.319Z,87.13
2018-05-04T05:54:16.387Z,87.23
2018-05-04T05:55:16.451Z,86.94
2018-05-04T05:56:16.507Z,86.57
2018-05-04T05:57:16.567Z,86.28
2018-05-04T05:58:16.641Z,86.38
2018-05-04T05:59:16.699Z,85.80
2018-05-04T06:00:16.769Z,85.42
2018-05-04T06:01:16.820Z,84.33
2018-05-04T06:02:16.882Z,84.61
2018-05-04T06:03:16.951Z,84.33
2018-05-04T06:04:17.020Z,83.56
2018-05-04T06:05:17.092Z,83.18
2018-05-04T06:06:17.134Z,84.52
2018-05-04T06:07:17.192Z,84.42
2018-05-04T06:08:17.261Z,84.42
2018-05-04T06:09:17.506Z,84.04
2018-05-04T06:10:17.379Z,83.18
2018-05-04T06:11:17.443Z,82.99
2018-05-04T06:12:17.508Z,81.76
2018-05-04T06:13:17.570Z,81.76
2018-05-04T06:14:17.644Z,82.42
2018-05-04T06:15:17.700Z,83.28
2018-05-04T06:16:17.755Z,83.98
2018-05-04T06:17:17.820Z,81.98
2018-05-04T06:18:17.884Z,81.60
2018-05-04T06:19:17.952Z,81.13
2018-05-04T06:20:18.016Z,80.94
2018-05-04T06:21:18.072Z,80.08
2018-05-04T06:22:18.132Z,79.41
2018-05-04T06:23:18.200Z,80.46
2018-05-04T06:24:18.260Z,80.55
2018-05-04T06:25:18.344Z,79.89
2018-05-04T06:26:18.385Z,79.55
2018-05-04T06:27:18.448Z,79.27
2018-05-04T06:28:18.509Z,78.98
2018-05-04T06:29:18.573Z,78.31
2018-05-04T06:30:18.644Z,77.83
2018-05-04T06:31:18.704Z,77.64
2018-05-04T06:32:18.777Z,77.26
2018-05-04T06:33:18.825Z,77.45
2018-05-04T06:34:18.893Z,76.98
2018-05-04T06:35:18.957Z,76.98
2018-05-04T06:36:19.041Z,77.55
2018-05-04T06:37:19.081Z,77.11
2018-05-04T06:38:19.187Z,76.16
2018-05-04T06:39:19.213Z,75.49
2018-05-04T06:40:19.306Z,74.25
2018-05-04T06:41:19.329Z,73.24
2018-05-04T06:42:19.393Z,71.69
2018-05-04T06:43:19.457Z,68.64
2018-05-04T06:44:19.525Z,64.37
2018-05-04T06:45:19.593Z,61.76
2018-05-04T06:46:19.661Z,59.77
2018-05-04T06:47:19.717Z,59.83
2018-05-04T06:48:19.787Z,56.02
2018-05-04T06:49:19.853Z,55.32
2018-05-04T06:50:19.931Z,53.70
2018-05-04T06:51:19.997Z,51.33
2018-05-04T06:52:20.057Z,50.59
2018-05-04T06:53:20.159Z,49.17
2018-05-04T06:54:20.198Z,47.92
2018-05-04T06:55:20.662Z,47.22
2018-05-04T06:56:20.366Z,47.49
2018-05-04T06:57:20.406Z,47.66
2018-05-04T06:58:20.479Z,47.08
2018-05-04T06:59:20.615Z,48.83
2018-05-04T07:00:20.614Z,48.69
2018-05-04T07:01:20.702Z,47.92
2018-05-04T07:02:20.757Z,46.59
2018-05-04T07:03:20.830Z,45.15
2018-05-04T07:04:20.898Z,44.67
2018-05-04T07:05:20.974Z,44.31
2018-05-04T07:06:21.046Z,43.65
2018-05-04T07:07:21.122Z,42.42
2018-05-04T07:08:21.186Z,41.07
2018-05-04T07:09:21.270Z,42.05
2018-05-04T07:10:21.392Z,41.02
2018-05-04T07:11:21.418Z,39.97
2018-05-04T07:12:21.490Z,39.59
2018-05-04T07:13:21.555Z,38.06
2018-05-04T07:14:21.626Z,37.19
2018-05-04T07:15:21.710Z,39.12
2018-05-04T07:16:21.786Z,38.46
2018-05-04T07:17:21.863Z,36.15
2018-05-04T07:18:21.939Z,37.02
2018-05-04T07:19:22.015Z,37.50
2018-05-04T07:20:22.087Z,36.36
2018-05-04T07:21:22.355Z,35.88
2018-05-04T07:22:22.239Z,34.60
2018-05-04T07:23:22.315Z,35.78
2018-05-04T07:24:22.407Z,37.73
2018-05-04T07:25:22.484Z,36.86
2018-05-04T07:26:22.555Z,34.45
2018-05-04T07:27:22.632Z,35.04
2018-05-04T07:28:22.715Z,35.13
2018-05-04T07:29:22.779Z,35.81
2018-05-04T07:30:22.896Z,34.47
2018-05-04T07:31:22.944Z,33.62
2018-05-04T07:32:23.051Z,34.01
2018-05-04T07:33:23.112Z,35.07
2018-05-04T07:34:23.187Z,35.67
2018-05-04T07:35:23.252Z,34.61
2018-05-04T07:36:23.381Z,33.73
2018-05-04T07:37:23.420Z,31.68
2018-05-04T07:38:23.608Z,34.12
2018-05-04T07:39:24.232Z,33.04
2018-05-04T07:40:24.915Z,32.12
2018-05-04T07:41:26.535Z,33.01
2018-05-04T07:42:24.807Z,34.55
2018-05-04T07:43:24.880Z,33.12
2018-05-04T07:44:25.092Z,32.06
2018-05-04T07:45:24.900Z,33.41
2018-05-04T07:46:25.448Z,31.57
2018-05-04T07:47:24.761Z,32.56
2018-05-04T07:48:25.524Z,31.28
2018-05-04T07:49:25.669Z,31.28
2018-05-04T07:50:25.348Z,32.52
2018-05-04T07:51:26.406Z,31.96
2018-05-04T07:52:26.144Z,31.20
2018-05-04T07:53:30.669Z,31.97
2018-05-04T07:54:25.816Z,31.89
2018-05-04T07:55:25.464Z,30.84
2018-05-04T07:56:25.888Z,30.26
2018-05-04T07:57:26.260Z,29.38
2018-05-04T07:58:26.960Z,29.69
2018-05-04T07:59:26.748Z,29.50
2018-05-04T08:00:26.361Z,29.32
2018-05-04T08:01:26.073Z,28.34
2018-05-04T08:02:28.496Z,28.83
2018-05-04T08:03:26.000Z,29.61
2018-05-04T08:04:26.940Z,29.40
2018-05-04T08:05:26.772Z,31.74
2018-05-04T08:06:27.808Z,31.07
2018-05-04T08:07:27.008Z,32.15
2018-05-04T08:08:26.924Z,31.37
2018-05-04T08:09:28.179Z,30.45
2018-05-04T08:10:28.745Z,30.16
2018-05-04T08:11:27.252Z,31.05
2018-05-04T08:12:27.065Z,32.89
2018-05-04T08:13:27.540Z,30.58
2018-05-04T08:14:31.049Z,31.57
2018-05-04T08:15:27.557Z,30.98
2018-05-04T08:16:27.980Z,29.93
2018-05-04T08:17:29.021Z,27.58
2018-05-04T08:18:27.793Z,27.00
2018-05-04T08:19:28.945Z,27.87
2018-05-04T08:20:27.457Z,26.50
2018-05-04T08:21:28.681Z,25.89
2018-05-04T08:22:28.680Z,27.33
2018-05-04T08:23:28.616Z,28.02
2018-05-04T08:24:28.430Z,29.47
2018-05-04T08:25:28.129Z,28.61
2018-05-04T08:26:30.220Z,27.66
2018-05-04T08:27:28.529Z,27.66
2018-05-04T08:28:28.501Z,27.67
2018-05-04T08:29:28.738Z,29.12
2018-05-04T08:30:29.344Z,29.52
2018-05-04T08:31:28.765Z,28.86
2018-05-04T08:32:28.845Z,28.66
2018-05-04T08:33:28.784Z,28.39
2018-05-04T08:34:28.857Z,28.69
2018-05-04T08:35:28.882Z,26.94
2018-05-04T08:36:28.917Z,25.58
2018-05-04T08:37:29.161Z,26.65
2018-05-04T08:38:29.065Z,27.73
2018-05-04T08:39:29.074Z,28.13
2018-05-04T08:40:31.079Z,27.64
2018-05-04T08:41:31.110Z,27.64
2018-05-04T08:42:32.153Z,26.76
2018-05-04T08:43:31.273Z,27.23
2018-05-04T08:44:29.479Z,26.92
2018-05-04T08:45:29.834Z,27.58
2018-05-04T08:46:29.645Z,28.83
2018-05-04T08:47:31.214Z,28.65
2018-05-04T08:48:30.309Z,29.04
2018-05-04T08:49:30.186Z,30.11
2018-05-04T08:50:30.013Z,30.02
2018-05-04T08:51:31.466Z,28.97
2018-05-04T08:52:30.150Z,28.97
2018-05-04T08:53:30.662Z,27.22
2018-05-04T08:54:30.127Z,27.62
2018-05-04T08:55:30.274Z,27.14
2018-05-04T08:56:30.402Z,27.34
2018-05-04T08:57:30.702Z,27.54
2018-05-04T08:58:30.697Z,27.65
2018-05-04T08:59:32.918Z,25.98
2018-05-04T09:00:30.787Z,24.22
2018-05-04T09:01:31.686Z,23.91
2018-05-04T09:02:30.922Z,23.71
2018-05-04T09:03:31.215Z,25.36
2018-05-04T09:04:31.543Z,25.47
2018-05-04T09:05:31.149Z,25.86
2018-05-04T09:06:32.695Z,27.51
2018-05-04T09:07:32.383Z,26.93
2018-05-04T09:08:31.727Z,27.61
2018-05-04T09:09:31.695Z,27.59
2018-05-04T09:10:31.488Z,28.54
2018-05-04T09:11:31.663Z,28.54
2018-05-04T09:12:32.387Z,29.51
2018-05-04T09:13:31.664Z,29.04
2018-05-04T09:14:32.603Z,25.71
2018-05-04T09:15:31.806Z,28.63
2018-05-04T09:16:31.775Z,27.66
2018-05-04T09:17:31.427Z,27.37
2018-05-04T09:18:31.487Z,26.03
2018-05-04T09:19:31.575Z,23.70
2018-05-04T09:20:31.660Z,24.29
2018-05-04T09:21:31.795Z,25.96
2018-05-04T09:22:31.795Z,23.52
2018-05-04T09:23:31.863Z,23.49
2018-05-04T09:24:31.971Z,24.37
2018-05-04T09:25:32.039Z,23.69
2018-05-04T09:26:32.075Z,23.79
2018-05-04T09:27:32.149Z,24.77
2018-05-04T09:28:32.232Z,25.35
2018-05-04T09:29:32.335Z,26.03
2018-05-04T09:30:32.389Z,24.46
2018-05-04T09:31:32.472Z,24.56
2018-05-04T09:32:32.588Z,24.17
2018-05-04T09:33:32.628Z,23.10
2018-05-04T09:34:32.716Z,25.64
2018-05-04T09:35:32.790Z,25.75
2018-05-04T09:36:32.860Z,25.07
2018-05-04T09:37:32.928Z,24.79
2018-05-04T09:38:33.012Z,24.11
2018-05-04T09:39:33.105Z,22.54
2018-05-04T09:40:33.148Z,23.99
2018-05-04T09:41:33.232Z,24.67
2018-05-04T09:42:33.304Z,24.77
2018-05-04T09:43:33.446Z,24.77
2018-05-04T09:44:33.477Z,24.57
2018-05-04T09:45:33.545Z,24.38
2018-05-04T09:46:33.620Z,25.07
2018-05-04T09:47:33.727Z,25.45
2018-05-04T09:48:33.833Z,24.77
2018-05-04T09:49:33.865Z,26.01
2018-05-04T09:50:33.925Z,24.95
2018-05-04T09:51:34.009Z,26.20
2018-05-04T09:52:34.065Z,25.62
2018-05-04T09:53:34.145Z,27.07
2018-05-04T09:54:34.301Z,25.70
2018-05-04T09:55:34.289Z,24.71
2018-05-04T09:56:34.369Z,25.47
2018-05-04T09:57:34.446Z,26.15
2018-05-04T09:58:34.522Z,25.87
2018-05-04T09:59:34.602Z,24.98
2018-05-04T10:00:34.671Z,26.35
2018-05-04T10:01:34.742Z,25.67
2018-05-04T10:02:34.817Z,25.77
2018-05-04T10:03:34.950Z,25.09
2018-05-04T10:04:34.970Z,24.33
2018-05-04T10:05:35.043Z,24.24
2018-05-04T10:06:35.118Z,23.37
2018-05-04T10:07:35.190Z,23.48
2018-05-04T10:08:35.262Z,25.71
2018-05-04T10:09:35.338Z,24.13
2018-05-04T10:10:35.577Z,25.29
2018-05-04T10:11:35.494Z,25.40
2018-05-04T10:12:35.558Z,24.61
2018-05-04T10:13:35.636Z,25.27
2018-05-04T10:14:35.710Z,26.15
2018-05-04T10:15:35.789Z,25.65
2018-05-04T10:16:35.866Z,25.74
2018-05-04T10:17:35.927Z,26.32
2018-05-04T10:18:36.002Z,25.94
2018-05-04T10:19:36.074Z,28.36
2018-05-04T10:20:36.454Z,29.44
2018-05-04T10:21:36.222Z,27.81
2018-05-04T10:22:36.294Z,26.26
2018-05-04T10:23:36.374Z,25.95
2018-05-04T10:24:36.439Z,24.79
2018-05-04T10:25:36.519Z,26.15
2018-05-04T10:26:36.591Z,27.51
2018-05-04T10:27:36.661Z,26.06
2018-05-04T10:28:36.731Z,25.48
2018-05-04T10:29:36.803Z,26.46
2018-05-04T10:30:36.883Z,24.91
2018-05-04T10:31:36.955Z,25.78
2018-05-04T10:32:37.021Z,25.88
2018-05-04T10:33:37.094Z,26.56
2018-05-04T10:34:37.167Z,25.27
2018-05-04T10:35:37.251Z,24.98
2018-05-04T10:36:37.311Z,26.35
2018-05-04T10:37:37.382Z,26.45
2018-05-04T10:38:37.566Z,24.32
2018-05-04T10:39:37.527Z,24.41
2018-05-04T10:40:37.607Z,27.11
2018-05-04T10:41:37.679Z,26.06
2018-05-04T10:42:37.743Z,26.15
2018-05-04T10:43:37.814Z,26.26
2018-05-04T10:44:37.887Z,25.27
2018-05-04T10:45:37.967Z,26.04
2018-05-04T10:46:38.039Z,25.74
2018-05-04T10:47:38.107Z,25.73
2018-05-04T10:48:38.175Z,26.81
2018-05-04T10:49:38.247Z,28.55
2018-05-04T10:50:38.335Z,27.39
2018-05-04T10:51:38.391Z,27.31
2018-05-04T10:52:38.464Z,25.56
2018-05-04T10:53:38.535Z,25.87
2018-05-04T10:54:38.607Z,25.38
2018-05-04T10:55:38.688Z,24.69
2018-05-04T10:56:38.767Z,26.63
2018-05-04T10:57:38.823Z,25.76
2018-05-04T10:58:38.895Z,25.84
2018-05-04T10:59:38.967Z,25.94
2018-05-04T11:00:39.048Z,26.31
2018-05-04T11:01:39.120Z,27.66
2018-05-04T11:02:39.184Z,27.47
2018-05-04T11:03:39.256Z,25.92
2018-05-04T11:04:39.329Z,27.46
2018-05-04T11:05:40.304Z,27.36
2018-05-04T11:06:39.468Z,27.67
2018-05-04T11:07:39.540Z,27.39
2018-05-04T11:08:39.612Z,26.12
2018-05-04T11:09:39.688Z,24.67
2018-05-04T11:10:39.756Z,26.99
2018-05-04T11:11:39.944Z,26.39
2018-05-04T11:12:39.900Z,25.43
2018-05-04T11:13:39.976Z,27.56
2018-05-04T11:14:40.044Z,28.72
2018-05-04T11:15:40.121Z,29.01
2018-05-04T11:16:40.200Z,25.52
2018-05-04T11:17:40.257Z,25.04
2018-05-04T11:18:40.328Z,26.12
2018-05-04T11:19:40.401Z,26.51
2018-05-04T11:20:40.474Z,26.89
2018-05-04T11:21:40.548Z,29.12
2018-05-04T11:22:40.620Z,27.37
2018-05-04T11:23:40.685Z,25.82
2018-05-04T11:24:40.758Z,26.20
2018-05-04T11:25:40.829Z,27.45
2018-05-04T11:26:40.908Z,28.91
2018-05-04T11:27:40.980Z,29.59
2018-05-04T11:28:41.041Z,27.86
2018-05-04T11:29:41.108Z,28.92
2018-05-04T11:30:41.185Z,29.50
2018-05-04T11:31:41.272Z,27.56
2018-05-04T11:32:41.328Z,29.70
2018-05-04T11:33:41.401Z,28.62
2018-05-04T11:34:41.473Z,30.66
2018-05-04T11:35:41.541Z,29.99
2018-05-04T11:36:41.625Z,31.16
2018-05-04T11:37:41.693Z,31.07
2018-05-04T11:38:41.757Z,29.02
2018-05-04T11:39:41.833Z,30.98
2018-05-04T11:40:41.901Z,31.36
2018-05-04T11:41:41.977Z,30.39
2018-05-04T11:42:42.049Z,31.07
2018-05-04T11:43:42.118Z,30.96
2018-05-04T11:44:42.261Z,28.91
2018-05-04T11:45:42.260Z,29.60
2018-05-04T11:46:42.329Z,33.57
2018-05-04T11:47:42.505Z,31.44
2018-05-04T11:48:42.469Z,28.94
2018-05-04T11:49:42.564Z,30.29
2018-05-04T11:50:42.616Z,31.26
2018-05-04T11:51:42.685Z,28.76
2018-05-04T11:52:42.761Z,26.82
2018-05-04T11:53:42.833Z,27.40
2018-05-04T11:54:42.898Z,28.47
2018-05-04T11:55:42.969Z,28.96
2018-05-04T11:56:43.041Z,27.79
2018-05-04T11:57:43.225Z,27.29
2018-05-04T11:58:43.192Z,27.58
2018-05-04T11:59:43.257Z,27.20
2018-05-04T12:00:43.325Z,27.10
2018-05-04T12:01:43.398Z,27.67
2018-05-04T12:02:43.478Z,28.64
2018-05-04T12:03:43.546Z,28.44
2018-05-04T12:04:43.619Z,28.83
2018-05-04T12:05:43.682Z,29.02
2018-05-04T12:06:43.756Z,28.91
2018-05-04T12:07:43.838Z,28.41
2018-05-04T12:08:43.902Z,28.41
2018-05-04T12:09:43.970Z,29.27
2018-05-04T12:10:44.102Z,30.25
2018-05-04T12:11:44.114Z,30.44
2018-05-04T12:12:44.218Z,31.12
2018-05-04T12:13:44.254Z,29.88
2018-05-04T12:14:44.326Z,28.61
2018-05-04T12:15:44.394Z,29.86
2018-05-04T12:16:44.466Z,31.22
2018-05-04T12:17:44.546Z,30.83
2018-05-04T12:18:44.615Z,31.10
2018-05-04T12:19:44.680Z,29.27
2018-05-04T12:20:44.751Z,29.57
2018-05-04T12:21:44.822Z,31.22
2018-05-04T12:22:44.946Z,31.22
2018-05-04T12:23:44.970Z,32.49
2018-05-04T12:24:45.035Z,31.33
2018-05-04T12:25:45.107Z,31.23
2018-05-04T12:26:45.183Z,30.75
2018-05-04T12:27:45.414Z,31.23
2018-05-04T12:28:45.315Z,30.94
2018-05-04T12:29:45.387Z,29.49
2018-05-04T12:30:45.466Z,30.07
2018-05-04T12:31:45.527Z,29.39
2018-05-04T12:32:45.607Z,31.23
2018-05-04T12:33:45.679Z,30.46
2018-05-04T12:34:45.747Z,32.21
2018-05-04T12:35:45.811Z,31.23
2018-05-04T12:36:45.883Z,31.41
2018-05-04T12:37:45.960Z,30.72
2018-05-04T12:38:46.043Z,31.59
2018-05-04T12:39:46.099Z,32.84
2018-05-04T12:40:46.177Z,34.29
2018-05-04T12:41:46.235Z,34.21
2018-05-04T12:42:46.467Z,31.99
2018-05-04T12:43:46.380Z,33.45
2018-05-04T12:44:46.452Z,31.02
2018-05-04T12:45:46.519Z,32.49
2018-05-04T12:46:46.587Z,30.54
2018-05-04T12:47:46.663Z,30.33
2018-05-04T12:48:46.735Z,31.78
2018-05-04T12:49:46.800Z,31.98
2018-05-04T12:50:46.872Z,32.17
2018-05-04T12:51:46.940Z,31.60
2018-05-04T12:52:47.020Z,31.60
2018-05-04T12:53:47.163Z,31.62